Terminal Aerodrome Forecast
Issued by NWS

Home | Current Version | Previous Version | Graphics & Text | Print | Product List | Glossary On
Versions: 1 2 3 4 5 6 7 8 9 10 11 12 13 14 15 16 17 18
000
FTUS43 KFGF 180700 AAA
TAFBJI
TAF AMD
KBJI 180702Z 1807/1906 14011KT P6SM OVC005
     FM181400 13007KT P6SM SCT010 SCT250
     FM182100 14012KT P6SM SCT250=

USA.gov is the U.S. government's official web portal to all federal, state and local government web resources and services.